createdAt,value
2022-07-28T00:00:13.447Z,1.80
2022-07-28T00:01:16.498Z,1.50
2022-07-28T00:02:22.601Z,1.95
2022-07-28T00:03:25.641Z,1.63
2022-07-28T00:04:28.377Z,1.67
2022-07-28T00:05:31.209Z,2.15
2022-07-28T00:06:33.902Z,1.45
2022-07-28T00:07:36.607Z,1.60
2022-07-28T00:08:39.137Z,1.35
2022-07-28T00:09:41.957Z,1.90
2022-07-28T00:10:44.757Z,1.45
2022-07-28T00:11:51.422Z,1.80
2022-07-28T00:12:57.670Z,1.92
2022-07-28T00:14:00.327Z,1.70
2022-07-28T00:15:03.642Z,1.67
2022-07-28T00:16:07.428Z,2.00
2022-07-28T00:17:10.175Z,1.67
2022-07-28T00:18:12.814Z,1.65
2022-07-28T00:19:15.658Z,1.65
2022-07-28T00:20:18.409Z,1.70
2022-07-28T00:21:20.931Z,1.58
2022-07-28T00:22:23.464Z,1.80
2022-07-28T00:23:39.264Z,1.85
2022-07-28T00:24:42.375Z,1.58
2022-07-28T00:25:44.934Z,1.85
2022-07-28T00:26:47.509Z,1.80
2022-07-28T00:27:50.335Z,2.03
2022-07-28T00:28:52.874Z,1.73
2022-07-28T00:29:55.593Z,2.30
2022-07-28T00:30:58.297Z,2.00
2022-07-28T00:32:08.147Z,1.50
2022-07-28T00:33:11.043Z,1.75
2022-07-28T00:34:14.072Z,1.50
2022-07-28T00:35:17.041Z,2.10
2022-07-28T00:36:33.125Z,1.92
2022-07-28T00:37:35.865Z,2.00
2022-07-28T00:38:44.275Z,1.63
2022-07-28T00:39:47.176Z,2.00
2022-07-28T00:41:08.560Z,1.67
2022-07-28T00:42:12.325Z,1.45
2022-07-28T00:43:15.786Z,1.58
2022-07-28T00:44:18.550Z,2.38
2022-07-28T00:45:21.170Z,1.90
2022-07-28T00:46:24.294Z,1.77
2022-07-28T00:47:26.957Z,1.77
2022-07-28T00:48:55.513Z,1.75
2022-07-28T00:49:58.173Z,2.25
2022-07-28T00:51:00.852Z,1.92
2022-07-28T00:52:04.771Z,2.30
2022-07-28T00:53:08.728Z,2.22
2022-07-28T00:54:11.975Z,2.00
2022-07-28T00:55:14.723Z,1.65
2022-07-28T00:56:18.461Z,2.40
2022-07-28T00:57:21.957Z,2.17
2022-07-28T00:58:27.044Z,2.20
2022-07-28T00:59:29.752Z,1.98
2022-07-28T01:00:36.157Z,2.28
2022-07-28T01:01:38.905Z,2.35
2022-07-28T01:02:42.460Z,2.30
2022-07-28T01:03:47.827Z,2.20
2022-07-28T01:04:50.725Z,2.25
2022-07-28T01:05:59.427Z,2.63
2022-07-28T01:07:46.748Z,1.92
2022-07-28T01:09:10.403Z,2.40
2022-07-28T01:10:20.399Z,2.30
2022-07-28T01:11:41.595Z,1.75
2022-07-28T01:13:03.323Z,1.63
2022-07-28T01:14:11.214Z,1.60
2022-07-28T01:15:32.231Z,1.70
2022-07-28T01:16:44.907Z,2.20
2022-07-28T01:18:26.502Z,2.10
2022-07-28T01:19:47.172Z,1.77
2022-07-28T01:21:04.962Z,2.38
2022-07-28T01:22:10.856Z,1.95
2022-07-28T01:23:33.383Z,2.15
2022-07-28T01:24:49.132Z,2.25
2022-07-28T01:26:25.965Z,1.50
2022-07-28T01:27:37.205Z,2.25
2022-07-28T01:29:17.398Z,2.30
2022-07-28T01:30:42.417Z,2.22
2022-07-28T01:31:54.378Z,1.98
2022-07-28T01:33:13.086Z,1.60
2022-07-28T01:34:23.076Z,1.83
2022-07-28T01:35:29.504Z,2.23
2022-07-28T01:36:35.029Z,2.42
2022-07-28T01:37:46.382Z,2.08
2022-07-28T01:38:49.549Z,1.75
2022-07-28T01:39:56.666Z,2.17
2022-07-28T01:41:01.317Z,2.30
2022-07-28T01:42:06.307Z,1.80
2022-07-28T01:43:13.749Z,2.03
2022-07-28T01:44:20.285Z,2.00
2022-07-28T01:45:24.076Z,2.33
2022-07-28T01:46:27.698Z,1.90
2022-07-28T01:47:31.954Z,1.88
2022-07-28T01:48:35.083Z,1.77
2022-07-28T01:49:38.489Z,1.70
2022-07-28T01:50:42.520Z,1.85
2022-07-28T01:51:45.394Z,1.63
2022-07-28T01:52:49.086Z,1.70
2022-07-28T01:53:52.689Z,1.98
2022-07-28T01:54:55.918Z,2.28
2022-07-28T01:56:00.268Z,2.05
2022-07-28T01:57:03.571Z,2.05
2022-07-28T01:58:09.997Z,1.83
2022-07-28T01:59:12.820Z,2.35
2022-07-28T02:00:15.920Z,2.08
2022-07-28T02:01:19.952Z,2.03
2022-07-28T02:02:23.584Z,1.63
2022-07-28T02:03:29.897Z,2.13
2022-07-28T02:04:33.949Z,1.70
2022-07-28T02:05:37.524Z,1.92
2022-07-28T02:06:41.746Z,1.73
2022-07-28T02:07:45.432Z,2.78
2022-07-28T02:08:49.324Z,1.98
2022-07-28T02:09:53.633Z,2.40
2022-07-28T02:11:15.773Z,1.85
2022-07-28T02:12:19.131Z,1.67
2022-07-28T02:13:22.180Z,2.13
2022-07-28T02:14:26.212Z,2.17
2022-07-28T02:15:30.206Z,2.30
2022-07-28T02:16:32.902Z,1.52
2022-07-28T02:17:36.439Z,2.20
2022-07-28T02:18:39.824Z,2.60
2022-07-28T02:19:43.843Z,2.08
2022-07-28T02:20:46.595Z,1.58
2022-07-28T02:21:50.632Z,1.75
2022-07-28T02:22:54.052Z,1.98
2022-07-28T02:23:58.717Z,1.80
2022-07-28T02:25:03.034Z,2.72
2022-07-28T02:26:09.624Z,1.85
2022-07-28T02:27:19.927Z,1.77
2022-07-28T02:28:23.363Z,1.52
2022-07-28T02:29:49.687Z,1.73
2022-07-28T02:31:00.997Z,2.20
2022-07-28T02:33:58.730Z,1.85
2022-07-28T02:35:06.053Z,1.77
2022-07-28T02:36:14.222Z,2.42
2022-07-28T02:37:19.483Z,2.50
2022-07-28T02:38:30.478Z,1.90
2022-07-28T02:39:41.295Z,2.10
2022-07-28T02:40:45.038Z,1.83
2022-07-28T02:41:52.883Z,2.03
2022-07-28T02:42:56.672Z,2.33
2022-07-28T02:44:02.023Z,2.05
2022-07-28T02:45:07.507Z,2.40
2022-07-28T02:46:12.817Z,2.25
2022-07-28T02:47:21.511Z,2.40
2022-07-28T02:48:27.290Z,2.47
2022-07-28T02:49:34.003Z,1.92
2022-07-28T02:50:36.648Z,2.20
2022-07-28T02:51:41.363Z,1.67
2022-07-28T02:52:44.962Z,2.08
2022-07-28T02:53:48.325Z,2.00
2022-07-28T02:54:52.234Z,2.17
2022-07-28T02:55:55.311Z,2.60
2022-07-28T02:56:59.497Z,2.33
2022-07-28T02:58:05.397Z,2.20
2022-07-28T02:59:10.764Z,2.35
2022-07-28T03:00:14.057Z,2.05
2022-07-28T03:01:20.029Z,1.83
2022-07-28T03:02:22.903Z,2.03
2022-07-28T03:03:26.030Z,1.92
2022-07-28T03:04:47.181Z,2.22
2022-07-28T03:05:50.010Z,3.05
2022-07-28T03:06:52.599Z,2.55
2022-07-28T03:07:57.793Z,2.05
2022-07-28T03:09:00.721Z,1.95
2022-07-28T03:10:05.222Z,2.47
2022-07-28T03:11:12.230Z,1.95
2022-07-28T03:12:15.660Z,2.17
2022-07-28T03:13:18.351Z,1.92
2022-07-28T03:14:21.026Z,2.67
2022-07-28T03:15:24.230Z,2.17
2022-07-28T03:16:27.068Z,2.13
2022-07-28T03:17:29.721Z,2.20
2022-07-28T03:18:32.737Z,2.13
2022-07-28T03:19:35.858Z,2.17
2022-07-28T03:20:38.405Z,2.78
2022-07-28T03:21:41.914Z,2.88
2022-07-28T03:22:44.900Z,2.40
2022-07-28T03:23:48.401Z,2.55
2022-07-28T03:24:52.532Z,2.53
2022-07-28T03:25:57.729Z,2.53
2022-07-28T03:27:18.371Z,2.28
2022-07-28T03:28:21.821Z,2.63
2022-07-28T03:29:24.922Z,2.67
2022-07-28T03:30:31.856Z,2.50
2022-07-28T03:31:35.479Z,2.45
2022-07-28T03:32:51.571Z,2.55
2022-07-28T03:33:54.146Z,2.83
2022-07-28T03:34:58.181Z,2.70
2022-07-28T03:36:04.484Z,2.90
2022-07-28T03:37:12.861Z,2.47
2022-07-28T03:38:20.806Z,3.05
2022-07-28T03:39:25.135Z,2.63
2022-07-28T03:40:31.563Z,2.58
2022-07-28T03:41:35.020Z,3.28
2022-07-28T03:42:38.482Z,2.63
2022-07-28T03:43:41.340Z,3.03
2022-07-28T03:44:45.422Z,3.00
2022-07-28T03:45:48.553Z,2.63
2022-07-28T03:46:51.235Z,3.72
2022-07-28T03:47:55.767Z,2.28
2022-07-28T03:48:58.593Z,3.15
2022-07-28T03:50:01.365Z,3.08
2022-07-28T03:51:04.333Z,3.35
2022-07-28T03:52:06.970Z,2.90
2022-07-28T03:53:18.243Z,3.28
2022-07-28T03:54:20.985Z,3.08
2022-07-28T03:55:24.273Z,2.72
2022-07-28T03:56:26.922Z,3.15
2022-07-28T03:57:29.602Z,2.75
2022-07-28T03:58:32.467Z,3.28
2022-07-28T03:59:35.108Z,2.80
2022-07-28T04:00:37.891Z,2.55
2022-07-28T04:01:40.727Z,3.10
2022-07-28T04:02:44.774Z,2.85
2022-07-28T04:03:47.394Z,2.67
2022-07-28T04:04:50.093Z,2.95
2022-07-28T04:05:54.923Z,3.05
2022-07-28T04:06:57.495Z,2.88
2022-07-28T04:08:00.170Z,2.63
2022-07-28T04:09:02.758Z,2.63
2022-07-28T04:10:07.625Z,2.60
2022-07-28T04:11:10.483Z,2.63
2022-07-28T04:12:13.103Z,2.85
2022-07-28T04:13:15.706Z,3.45
2022-07-28T04:14:18.994Z,3.45
2022-07-28T04:15:23.100Z,3.58
2022-07-28T04:16:25.766Z,3.58
2022-07-28T04:17:28.564Z,3.40
2022-07-28T04:18:31.191Z,2.80
2022-07-28T04:19:33.652Z,3.63
2022-07-28T04:20:36.278Z,3.67
2022-07-28T04:21:38.929Z,3.45
2022-07-28T04:22:41.615Z,3.55
2022-07-28T04:23:44.271Z,3.50
2022-07-28T04:24:46.985Z,4.35
2022-07-28T04:25:49.602Z,3.60
2022-07-28T04:26:52.218Z,3.83
2022-07-28T04:27:56.365Z,3.50
2022-07-28T04:28:59.041Z,3.72
2022-07-28T04:30:09.299Z,4.72
2022-07-28T04:31:12.627Z,4.10
2022-07-28T04:32:15.237Z,3.60
2022-07-28T04:33:19.593Z,4.55
2022-07-28T04:34:22.504Z,4.05
2022-07-28T04:35:27.285Z,3.55
2022-07-28T04:36:30.287Z,4.38
2022-07-28T04:37:33.433Z,4.07
2022-07-28T04:38:36.432Z,3.33
2022-07-28T04:39:39.306Z,3.25
2022-07-28T04:40:42.593Z,3.50
2022-07-28T04:41:45.416Z,2.78
2022-07-28T04:42:48.034Z,2.85
2022-07-28T04:43:50.644Z,3.15
2022-07-28T04:44:53.274Z,2.75
2022-07-28T04:45:56.048Z,3.10
2022-07-28T04:46:58.635Z,2.80
2022-07-28T04:48:01.287Z,2.83
2022-07-28T04:49:04.344Z,2.35
2022-07-28T04:50:09.011Z,2.70
2022-07-28T04:51:11.668Z,2.38
2022-07-28T04:52:15.725Z,2.08
2022-07-28T04:53:19.122Z,2.35
2022-07-28T04:54:26.360Z,2.03
2022-07-28T04:55:29.495Z,2.30
2022-07-28T04:56:32.787Z,2.30
2022-07-28T04:57:35.710Z,2.22
2022-07-28T04:58:39.108Z,2.30
2022-07-28T04:59:43.014Z,1.77
2022-07-28T05:00:45.968Z,1.90
2022-07-28T05:01:48.629Z,2.00
2022-07-28T05:02:51.894Z,2.17
2022-07-28T05:03:54.580Z,2.03
2022-07-28T05:04:57.243Z,2.05
2022-07-28T05:05:59.878Z,2.25
2022-07-28T05:07:07.887Z,2.28
2022-07-28T05:08:15.371Z,1.90
2022-07-28T05:09:18.088Z,2.17
2022-07-28T05:10:20.841Z,2.03
2022-07-28T05:11:23.496Z,1.48
2022-07-28T05:12:26.261Z,2.28
2022-07-28T05:13:33.789Z,1.80
2022-07-28T05:14:37.074Z,1.92
2022-07-28T05:15:39.665Z,2.05
2022-07-28T05:16:42.356Z,1.40
2022-07-28T05:17:44.980Z,1.73
2022-07-28T05:18:47.723Z,1.90
2022-07-28T05:19:50.264Z,2.08
2022-07-28T05:20:53.139Z,1.80
2022-07-28T05:21:55.701Z,1.92
2022-07-28T05:22:58.523Z,1.60
2022-07-28T05:24:01.139Z,1.55
2022-07-28T05:25:03.890Z,1.45
2022-07-28T05:26:07.239Z,1.77
2022-07-28T05:27:12.095Z,1.70
2022-07-28T05:28:14.691Z,1.48
2022-07-28T05:29:19.795Z,1.80
2022-07-28T05:30:22.443Z,1.70
2022-07-28T05:31:25.437Z,1.92
2022-07-28T05:32:28.298Z,2.13
2022-07-28T05:33:32.118Z,1.27
2022-07-28T05:34:35.708Z,1.67
2022-07-28T05:35:38.298Z,1.55
2022-07-28T05:36:41.100Z,1.50
2022-07-28T05:37:44.059Z,1.98
2022-07-28T05:38:46.573Z,1.83
2022-07-28T05:39:49.135Z,1.33
2022-07-28T05:40:52.641Z,1.65
2022-07-28T05:41:55.229Z,1.80
2022-07-28T05:42:57.761Z,1.35
2022-07-28T05:44:01.425Z,1.60
2022-07-28T05:45:15.811Z,1.58
2022-07-28T05:46:19.966Z,1.48
2022-07-28T05:47:22.588Z,1.40
2022-07-28T05:48:25.540Z,1.38
2022-07-28T05:49:28.102Z,1.45
2022-07-28T05:50:30.813Z,1.35
2022-07-28T05:51:38.404Z,1.75
2022-07-28T05:52:44.768Z,1.77
2022-07-28T05:53:47.399Z,1.45
2022-07-28T05:54:50.006Z,1.90
2022-07-28T05:55:56.423Z,1.48
2022-07-28T05:57:04.211Z,1.55
2022-07-28T05:58:06.789Z,1.40
2022-07-28T05:59:10.292Z,1.42
2022-07-28T06:00:18.320Z,1.50
2022-07-28T06:01:21.259Z,1.40
2022-07-28T06:02:23.880Z,1.38
2022-07-28T06:03:27.293Z,2.13
2022-07-28T06:04:30.032Z,1.25
2022-07-28T06:05:33.047Z,1.50
2022-07-28T06:06:35.827Z,1.98
2022-07-28T06:07:43.580Z,1.30
2022-07-28T06:08:47.443Z,1.45
2022-07-28T06:09:50.066Z,1.50
2022-07-28T06:11:02.303Z,1.88
2022-07-28T06:12:05.449Z,1.20
2022-07-28T06:13:07.906Z,1.85
2022-07-28T06:14:10.754Z,1.45
2022-07-28T06:15:15.619Z,1.50
2022-07-28T06:16:20.989Z,1.27
2022-07-28T06:17:23.957Z,1.10
2022-07-28T06:18:26.633Z,1.30
2022-07-28T06:19:29.481Z,1.30
2022-07-28T06:20:32.129Z,1.20
2022-07-28T06:21:35.052Z,1.35
2022-07-28T06:22:51.356Z,1.17
2022-07-28T06:23:53.986Z,1.33
2022-07-28T06:24:56.721Z,1.33
2022-07-28T06:25:59.439Z,1.33
2022-07-28T06:27:02.946Z,2.20
2022-07-28T06:28:05.935Z,1.20
2022-07-28T06:29:08.382Z,1.30
2022-07-28T06:30:11.555Z,1.25
2022-07-28T06:31:14.533Z,1.23
2022-07-28T06:32:17.197Z,1.50
2022-07-28T06:33:19.862Z,1.55
2022-07-28T06:34:23.069Z,1.38
2022-07-28T06:35:26.153Z,1.05
2022-07-28T06:36:28.995Z,1.13
2022-07-28T06:37:31.694Z,1.30
2022-07-28T06:38:34.884Z,1.08
2022-07-28T06:39:37.612Z,1.45
2022-07-28T06:40:40.388Z,1.30
2022-07-28T06:41:44.593Z,1.10
2022-07-28T06:42:50.098Z,1.13
2022-07-28T06:43:53.350Z,1.13
2022-07-28T06:44:59.547Z,1.00
2022-07-28T06:46:05.101Z,1.40
2022-07-28T06:47:07.790Z,1.10
2022-07-28T06:48:10.692Z,1.50
2022-07-28T06:49:13.566Z,1.20
2022-07-28T06:50:25.745Z,1.13
2022-07-28T06:51:29.985Z,1.42
2022-07-28T06:52:33.634Z,0.95
2022-07-28T06:53:36.255Z,1.20
2022-07-28T06:54:39.144Z,1.00
2022-07-28T06:55:51.466Z,0.90
2022-07-28T06:56:54.137Z,1.08
2022-07-28T06:57:58.452Z,0.98
2022-07-28T06:59:01.152Z,1.20
2022-07-28T07:00:07.496Z,0.90
2022-07-28T07:01:10.124Z,1.08
2022-07-28T07:02:13.620Z,0.88
2022-07-28T07:03:17.054Z,0.88
2022-07-28T07:04:19.761Z,1.08
2022-07-28T07:05:23.051Z,1.08
2022-07-28T07:06:25.957Z,0.80
2022-07-28T07:07:29.070Z,1.38
2022-07-28T07:08:31.965Z,1.20
2022-07-28T07:09:35.012Z,0.80
2022-07-28T07:10:37.649Z,1.05
2022-07-28T07:11:41.242Z,1.00
2022-07-28T07:12:43.867Z,0.95
2022-07-28T07:13:46.516Z,0.82
2022-07-28T07:14:49.277Z,1.10
2022-07-28T07:15:51.978Z,1.20
2022-07-28T07:16:54.763Z,0.80
2022-07-28T07:17:57.383Z,1.20
2022-07-28T07:19:00.029Z,1.25
2022-07-28T07:20:10.666Z,1.17
2022-07-28T07:21:13.606Z,1.10
2022-07-28T07:22:17.148Z,0.80
2022-07-28T07:23:19.814Z,0.95
2022-07-28T07:24:22.599Z,1.05
2022-07-28T07:25:25.895Z,0.63
2022-07-28T07:26:28.557Z,0.95
2022-07-28T07:27:31.294Z,0.90
2022-07-28T07:28:34.807Z,1.00
2022-07-28T07:29:37.470Z,1.30
2022-07-28T07:30:40.144Z,0.95
2022-07-28T07:31:42.773Z,0.90
2022-07-28T07:32:45.701Z,1.10
2022-07-28T07:33:48.298Z,0.90
2022-07-28T07:34:50.897Z,0.90
2022-07-28T07:35:53.538Z,0.82
2022-07-28T07:36:56.296Z,0.90
2022-07-28T07:37:59.067Z,1.13
2022-07-28T07:39:01.786Z,1.23
2022-07-28T07:40:06.215Z,1.58
2022-07-28T07:41:09.292Z,1.00
2022-07-28T07:42:14.293Z,1.00
2022-07-28T07:43:17.976Z,1.05
2022-07-28T07:44:20.712Z,1.08
2022-07-28T07:45:23.268Z,0.95
2022-07-28T07:46:26.041Z,1.05
2022-07-28T07:47:28.743Z,0.77
2022-07-28T07:48:31.558Z,1.00
2022-07-28T07:49:45.685Z,1.10
2022-07-28T07:50:53.644Z,0.88
2022-07-28T07:51:56.857Z,0.75
2022-07-28T07:52:59.523Z,1.00
2022-07-28T07:54:02.195Z,1.20
2022-07-28T07:55:05.524Z,1.10
2022-07-28T07:56:08.141Z,1.17
2022-07-28T07:57:10.985Z,1.10
2022-07-28T07:58:13.537Z,0.88
2022-07-28T07:59:16.141Z,1.30
2022-07-28T08:00:29.269Z,1.20
2022-07-28T08:01:32.440Z,1.13
2022-07-28T08:02:39.542Z,1.00
2022-07-28T08:03:43.989Z,1.35
2022-07-28T08:04:46.695Z,0.90
2022-07-28T08:05:51.692Z,0.90
2022-07-28T08:06:54.222Z,0.90
2022-07-28T08:07:57.495Z,1.05
2022-07-28T08:09:00.166Z,1.10
2022-07-28T08:10:04.018Z,1.02
2022-07-28T08:11:06.553Z,1.08
2022-07-28T08:12:10.580Z,1.00
2022-07-28T08:13:13.222Z,0.80
2022-07-28T08:14:16.269Z,0.90
2022-07-28T08:15:19.540Z,0.90
2022-07-28T08:16:22.345Z,1.00
2022-07-28T08:17:26.130Z,1.17
2022-07-28T08:18:29.114Z,0.90
2022-07-28T08:19:31.758Z,0.85
2022-07-28T08:20:34.368Z,1.17
2022-07-28T08:21:36.999Z,0.93
2022-07-28T08:22:52.413Z,0.93
2022-07-28T08:23:58.576Z,1.17
2022-07-28T08:25:01.431Z,1.17
2022-07-28T08:26:04.562Z,1.20
2022-07-28T08:27:07.239Z,1.25
2022-07-28T08:28:09.995Z,1.35
2022-07-28T08:29:12.708Z,1.10
2022-07-28T08:30:16.930Z,0.95
2022-07-28T08:31:25.226Z,0.90
2022-07-28T08:32:27.930Z,1.10
2022-07-28T08:33:30.745Z,1.20
2022-07-28T08:34:34.249Z,1.27
2022-07-28T08:35:37.054Z,1.00
2022-07-28T08:36:39.749Z,1.08
2022-07-28T08:37:42.730Z,1.10
2022-07-28T08:38:45.564Z,1.02
2022-07-28T08:39:48.417Z,1.05
2022-07-28T08:40:52.066Z,1.48
2022-07-28T08:42:02.711Z,0.98
2022-07-28T08:43:26.789Z,1.05
2022-07-28T08:44:34.318Z,1.23
2022-07-28T08:45:39.273Z,1.40
2022-07-28T08:46:43.364Z,1.27
2022-07-28T08:48:07.279Z,1.33
2022-07-28T08:49:09.861Z,1.27
2022-07-28T08:50:14.038Z,1.20
2022-07-28T08:51:17.122Z,1.00
2022-07-28T08:52:21.864Z,1.00
2022-07-28T08:53:24.855Z,0.77
2022-07-28T08:54:29.068Z,0.90
2022-07-28T08:55:32.462Z,0.88
2022-07-28T08:56:37.433Z,0.68
2022-07-28T08:57:43.545Z,0.90
2022-07-28T08:58:46.307Z,1.00
2022-07-28T08:59:50.518Z,0.60
2022-07-28T09:00:53.277Z,0.80
2022-07-28T09:01:57.838Z,0.70
2022-07-28T09:03:03.420Z,0.63
2022-07-28T09:04:08.000Z,0.60
2022-07-28T09:05:11.223Z,0.60
2022-07-28T09:06:14.437Z,0.90
2022-07-28T09:07:17.275Z,0.70
2022-07-28T09:08:20.256Z,1.10
2022-07-28T09:09:22.788Z,0.60
2022-07-28T09:10:25.587Z,0.77
2022-07-28T09:11:29.199Z,0.60
2022-07-28T09:12:35.613Z,0.50
2022-07-28T09:13:38.546Z,0.73
2022-07-28T09:14:41.777Z,0.60
2022-07-28T09:15:46.551Z,0.70
2022-07-28T09:16:49.712Z,0.60
2022-07-28T09:17:52.438Z,0.80
2022-07-28T09:18:55.106Z,0.73
2022-07-28T09:19:57.712Z,0.70
2022-07-28T09:21:00.325Z,0.75
2022-07-28T09:22:03.570Z,0.88
2022-07-28T09:23:42.158Z,1.00
2022-07-28T09:24:50.629Z,0.80
2022-07-28T09:26:12.443Z,0.60
2022-07-28T09:27:16.034Z,0.60
2022-07-28T09:28:20.305Z,0.80
2022-07-28T09:29:25.835Z,0.80
2022-07-28T09:30:35.218Z,1.00
2022-07-28T09:31:56.968Z,0.65
2022-07-28T09:33:41.828Z,0.80
2022-07-28T09:34:45.634Z,0.90
2022-07-28T09:35:56.503Z,0.70
2022-07-28T09:36:59.520Z,0.80
2022-07-28T09:38:02.312Z,0.90
2022-07-28T09:39:05.137Z,0.80
2022-07-28T09:40:12.615Z,0.90
2022-07-28T09:41:18.835Z,0.90
2022-07-28T09:42:21.983Z,0.80
2022-07-28T09:43:40.457Z,1.10
2022-07-28T09:45:00.092Z,0.80
2022-07-28T09:46:08.458Z,0.80
2022-07-28T09:47:27.995Z,0.85
2022-07-28T09:48:31.007Z,0.70
2022-07-28T09:49:42.887Z,0.90
2022-07-28T09:50:45.907Z,0.80
2022-07-28T09:52:02.411Z,1.00
2022-07-28T09:53:35.342Z,0.70
2022-07-28T09:54:40.994Z,0.70
2022-07-28T09:55:55.232Z,0.80
2022-07-28T09:56:58.063Z,1.10
2022-07-28T09:58:09.733Z,0.90
2022-07-28T09:59:14.805Z,1.25
2022-07-28T10:00:27.902Z,0.85
2022-07-28T10:01:35.144Z,0.98
2022-07-28T10:02:40.277Z,0.88
2022-07-28T10:03:50.086Z,0.90
2022-07-28T10:04:53.786Z,0.85
2022-07-28T10:05:59.261Z,1.10
2022-07-28T10:07:07.007Z,0.75
2022-07-28T10:08:09.753Z,0.93
2022-07-28T10:09:14.446Z,1.15
2022-07-28T10:10:21.217Z,0.90
2022-07-28T10:11:26.917Z,1.05
2022-07-28T10:12:31.607Z,1.10
2022-07-28T10:13:34.795Z,0.70
2022-07-28T10:14:37.478Z,1.15
2022-07-28T10:15:58.774Z,1.23
2022-07-28T10:17:05.881Z,1.10
2022-07-28T10:18:08.789Z,0.82
2022-07-28T10:19:11.506Z,0.85
2022-07-28T10:20:14.304Z,0.95
2022-07-28T10:21:18.581Z,1.00
2022-07-28T10:22:23.635Z,1.17
2022-07-28T10:23:26.517Z,0.80
2022-07-28T10:24:31.903Z,0.95
2022-07-28T10:25:35.129Z,1.10
2022-07-28T10:26:48.289Z,0.80
2022-07-28T10:27:52.109Z,0.90
2022-07-28T10:28:55.312Z,1.10
2022-07-28T10:30:00.769Z,0.82
2022-07-28T10:31:05.762Z,0.90
2022-07-28T10:32:09.022Z,1.27
2022-07-28T10:33:15.745Z,1.00
2022-07-28T10:34:31.072Z,0.98
2022-07-28T10:35:33.978Z,0.95
2022-07-28T10:36:56.803Z,0.80
2022-07-28T10:38:13.986Z,0.95
2022-07-28T10:39:19.885Z,1.05
2022-07-28T10:40:27.161Z,1.00
2022-07-28T10:41:34.540Z,1.00
2022-07-28T10:42:39.702Z,1.00
2022-07-28T10:43:45.493Z,1.08
2022-07-28T10:44:48.576Z,1.10
2022-07-28T10:46:09.680Z,1.00
2022-07-28T10:47:18.650Z,0.73
2022-07-28T10:48:23.956Z,1.00
2022-07-28T10:49:32.707Z,1.10
2022-07-28T10:50:37.080Z,0.80
2022-07-28T10:52:06.453Z,0.93
2022-07-28T10:53:12.182Z,0.77
2022-07-28T10:54:31.952Z,0.82
2022-07-28T10:55:51.182Z,0.82
2022-07-28T10:56:57.141Z,0.90
2022-07-28T10:58:30.822Z,0.60
2022-07-28T10:59:49.002Z,0.70
2022-07-28T11:00:56.655Z,0.85
2022-07-28T11:02:02.640Z,0.80
2022-07-28T11:03:14.031Z,0.80
2022-07-28T11:04:41.024Z,0.88
2022-07-28T11:05:44.099Z,0.63
2022-07-28T11:06:48.313Z,0.75
2022-07-28T11:07:50.840Z,0.60
2022-07-28T11:08:54.753Z,0.82
2022-07-28T11:10:15.593Z,0.60
2022-07-28T11:11:54.319Z,0.50
2022-07-28T11:12:58.658Z,0.65
2022-07-28T11:14:22.931Z,0.90
2022-07-28T11:15:35.255Z,0.63
2022-07-28T11:16:37.967Z,0.70
2022-07-28T11:18:00.707Z,0.40
2022-07-28T11:19:42.449Z,0.50
2022-07-28T11:21:00.675Z,0.70
2022-07-28T11:22:19.229Z,0.35
2022-07-28T11:23:57.012Z,0.70
2022-07-28T11:25:19.649Z,0.60
2022-07-28T11:26:24.320Z,0.40
2022-07-28T11:27:42.669Z,0.60
2022-07-28T11:29:00.315Z,0.80
2022-07-28T11:30:03.544Z,0.65
2022-07-28T11:31:06.274Z,0.50
2022-07-28T11:32:08.878Z,0.55
2022-07-28T11:33:11.427Z,0.50
2022-07-28T11:34:16.820Z,0.70
2022-07-28T11:35:20.831Z,0.70
2022-07-28T11:36:23.315Z,0.75
2022-07-28T11:37:26.166Z,0.90
2022-07-28T11:38:28.963Z,0.63
2022-07-28T11:39:43.083Z,0.77
2022-07-28T11:40:54.385Z,0.68
2022-07-28T11:41:57.565Z,0.60
2022-07-28T11:43:23.456Z,0.73
2022-07-28T11:44:40.610Z,0.60
2022-07-28T11:45:50.391Z,0.88
2022-07-28T11:47:25.556Z,1.00
2022-07-28T11:48:29.653Z,0.60
2022-07-28T11:49:32.708Z,0.70
2022-07-28T11:50:36.141Z,0.60
2022-07-28T11:51:52.709Z,0.60
2022-07-28T11:52:56.897Z,0.93
2022-07-28T11:53:59.686Z,1.00
2022-07-28T11:55:03.596Z,0.85
2022-07-28T11:56:11.799Z,0.80
2022-07-28T11:57:14.625Z,0.73
2022-07-28T11:58:27.676Z,0.63
2022-07-28T11:59:44.295Z,0.90
2022-07-28T12:00:49.969Z,0.85
2022-07-28T12:01:53.808Z,0.55
2022-07-28T12:02:57.708Z,0.70
2022-07-28T12:04:01.000Z,0.73
2022-07-28T12:05:07.273Z,0.40
2022-07-28T12:06:10.471Z,0.70
2022-07-28T12:07:13.511Z,0.73
2022-07-28T12:08:16.403Z,0.50
2022-07-28T12:09:23.487Z,0.80
2022-07-28T12:11:58.629Z,0.68
2022-07-28T12:13:06.044Z,0.80
2022-07-28T12:14:14.194Z,0.70
2022-07-28T12:15:17.550Z,0.50
2022-07-28T12:16:20.783Z,0.60
2022-07-28T12:17:33.341Z,0.60
2022-07-28T12:18:36.273Z,0.52
2022-07-28T12:19:39.489Z,0.63
2022-07-28T12:20:52.812Z,0.80
2022-07-28T12:21:56.664Z,0.68
2022-07-28T12:23:05.634Z,1.10
2022-07-28T12:24:19.353Z,0.57
2022-07-28T12:25:22.628Z,0.90
2022-07-28T12:26:34.487Z,0.70
2022-07-28T12:27:44.779Z,0.65
2022-07-28T12:28:51.779Z,0.38
2022-07-28T12:30:02.184Z,1.00
2022-07-28T12:32:17.655Z,1.02
2022-07-28T12:33:26.193Z,0.90
2022-07-28T12:34:35.067Z,0.90
2022-07-28T12:35:37.878Z,1.13
2022-07-28T12:36:40.522Z,1.23
2022-07-28T12:37:47.952Z,1.08
2022-07-28T12:38:51.647Z,1.25
2022-07-28T12:39:54.326Z,0.70
2022-07-28T12:40:57.239Z,0.80
2022-07-28T12:42:10.412Z,1.20
2022-07-28T12:43:13.356Z,0.80
2022-07-28T12:44:16.543Z,1.05
2022-07-28T12:45:20.720Z,0.80
2022-07-28T12:46:28.246Z,1.27
2022-07-28T12:47:31.694Z,0.80
2022-07-28T12:48:34.461Z,0.93
2022-07-28T12:49:38.157Z,0.68
2022-07-28T12:50:41.044Z,1.00
2022-07-28T12:51:45.453Z,0.80
2022-07-28T12:53:07.065Z,0.80
2022-07-28T12:54:12.716Z,0.85
2022-07-28T12:55:32.844Z,0.93
2022-07-28T12:56:50.112Z,0.80
2022-07-28T12:57:53.186Z,1.00
2022-07-28T12:59:13.489Z,0.90
2022-07-28T13:00:19.466Z,0.77
2022-07-28T13:01:22.521Z,0.90
2022-07-28T13:02:36.331Z,1.00
2022-07-28T13:03:49.432Z,0.90
2022-07-28T13:04:54.803Z,0.88
2022-07-28T13:06:03.679Z,0.80
2022-07-28T13:07:10.963Z,0.68
2022-07-28T13:08:13.464Z,0.80
2022-07-28T13:09:23.462Z,0.75
2022-07-28T13:10:27.794Z,0.75
2022-07-28T13:11:47.701Z,0.85
2022-07-28T13:13:01.039Z,0.80
2022-07-28T13:14:04.347Z,0.63
2022-07-28T13:15:16.226Z,0.80
2022-07-28T13:16:20.719Z,0.90
2022-07-28T13:17:25.668Z,0.75
2022-07-28T13:18:45.444Z,0.75
2022-07-28T13:19:49.098Z,1.00
2022-07-28T13:20:54.881Z,1.08
2022-07-28T13:22:02.871Z,0.75
2022-07-28T13:24:12.061Z,0.82
2022-07-28T13:25:15.360Z,1.05
2022-07-28T13:26:17.843Z,0.93
2022-07-28T13:27:20.575Z,0.70
2022-07-28T13:28:25.015Z,0.88
2022-07-28T13:29:28.267Z,1.23
2022-07-28T13:30:30.958Z,0.70
2022-07-28T13:31:35.878Z,0.90
2022-07-28T13:32:38.774Z,0.68
2022-07-28T13:33:42.051Z,0.82
2022-07-28T13:34:45.029Z,0.65
2022-07-28T13:35:50.100Z,1.17
2022-07-28T13:36:52.867Z,0.65
2022-07-28T13:37:55.543Z,0.70
2022-07-28T13:38:58.415Z,0.70
2022-07-28T13:40:01.902Z,0.80
2022-07-28T13:41:04.681Z,0.93
2022-07-28T13:42:07.900Z,0.95
2022-07-28T13:43:13.193Z,0.73
2022-07-28T13:44:16.546Z,0.47
2022-07-28T13:45:21.510Z,1.33
2022-07-28T13:46:26.087Z,1.20
2022-07-28T13:47:35.662Z,0.90
2022-07-28T13:48:59.817Z,0.88
2022-07-28T13:50:02.912Z,0.70
2022-07-28T13:51:05.566Z,0.70
2022-07-28T13:52:13.115Z,0.63
2022-07-28T13:53:16.194Z,1.02
2022-07-28T13:54:20.264Z,0.70
2022-07-28T13:55:23.648Z,0.70
2022-07-28T13:56:29.943Z,1.10
2022-07-28T13:57:43.344Z,0.82
2022-07-28T13:58:46.161Z,1.15
2022-07-28T13:59:48.942Z,1.13
2022-07-28T14:00:51.947Z,1.08
2022-07-28T14:01:57.926Z,1.02
2022-07-28T14:03:00.773Z,0.75
2022-07-28T14:04:04.741Z,1.02
2022-07-28T14:05:07.260Z,0.70
2022-07-28T14:06:10.509Z,0.70
2022-07-28T14:07:12.958Z,0.80
2022-07-28T14:08:21.416Z,0.57
2022-07-28T14:09:28.085Z,0.65
2022-07-28T14:10:30.790Z,0.50
2022-07-28T14:11:34.548Z,0.60
2022-07-28T14:12:39.328Z,0.47
2022-07-28T14:13:42.300Z,0.93
2022-07-28T14:14:48.032Z,0.82
2022-07-28T14:15:51.421Z,0.70
2022-07-28T14:17:25.700Z,0.70
2022-07-28T14:18:27.975Z,0.73
2022-07-28T14:19:38.219Z,0.95
2022-07-28T14:20:42.099Z,1.15
2022-07-28T14:21:46.092Z,0.60
2022-07-28T14:22:48.793Z,0.70
2022-07-28T14:23:51.856Z,0.80
2022-07-28T14:24:54.479Z,0.75
2022-07-28T14:26:18.328Z,0.65
2022-07-28T14:27:19.965Z,0.57
2022-07-28T14:28:23.525Z,0.85
2022-07-28T14:29:27.751Z,0.80
2022-07-28T14:30:31.347Z,0.45
2022-07-28T14:31:35.355Z,0.98
2022-07-28T14:32:39.139Z,0.57
2022-07-28T14:33:47.365Z,0.65
2022-07-28T14:34:51.213Z,0.80
2022-07-28T14:35:57.235Z,0.63
2022-07-28T14:36:59.879Z,0.40
2022-07-28T14:38:49.880Z,0.90
2022-07-28T14:39:28.110Z,0.70
2022-07-28T14:40:31.041Z,0.50
2022-07-28T14:41:33.721Z,0.90
2022-07-28T14:42:37.177Z,0.80
2022-07-28T14:43:39.745Z,0.43
2022-07-28T14:44:42.472Z,0.90
2022-07-28T14:46:00.504Z,0.60